Raleigh, Illinois
Current Conditions -  °F | °C
As of 6:35 AM on Monday 24 Nov 2014 (Local Time) from KHSB Reporting Station
Overcast Overcast  
Wind Chill: 36°   Ceiling: 6000
Heat Index: 45°   Visibility: 10mi
Dew Point: 40°   Wind: 23mph
Humidity: 82%   Direction: 270°W
Pressure: 29.5"   Gusts: 32mph
Location:  37.83°N, 88.53°W
Report Text: KHSB 241235Z AUTO 27020G28KT 10SM SCT023 OVC060 07/04 A2950 RMK AO2 T00710042
Loading
Personal Weather Stations






























Interactive Weather Map New forecast layout! Learn more

10-Day Weather Forecast

Advertisements
Track Severe Weather on mobile